createdAt,value
2023-04-03T00:01:32.000Z,0.8
2023-04-03T00:02:49.000Z,1
2023-04-03T00:04:05.200Z,0.8
2023-04-03T00:05:21.000Z,1.5
2023-04-03T00:06:19.587Z,1.2
2023-04-03T00:07:53.000Z,1.1
2023-04-03T00:09:09.000Z,1.1
2023-04-03T00:10:08.168Z,1.2
2023-04-03T00:11:24.361Z,1.2
2023-04-03T00:12:40.555Z,0.9
2023-04-03T00:14:13.000Z,0.8
2023-04-03T00:15:29.959Z,0.9
2023-04-03T00:16:46.000Z,1.1
2023-04-03T00:18:02.347Z,1
2023-04-03T00:19:18.558Z,1
2023-04-03T00:20:34.000Z,1.2
2023-04-03T00:21:32.926Z,1.1
2023-04-03T00:22:49.120Z,1
2023-04-03T00:24:23.000Z,1.5
2023-04-03T00:25:39.516Z,1.3
2023-04-03T00:26:55.000Z,1.2
2023-04-03T00:28:11.000Z,0.8
2023-04-03T00:29:10.087Z,1
2023-04-03T00:31:07.000Z,1
2023-04-03T00:31:59.509Z,1.1
2023-04-03T00:33:15.000Z,1.3
2023-04-03T00:34:31.000Z,1
2023-04-03T00:35:30.071Z,0.9
2023-04-03T00:37:04.000Z,1.2
2023-04-03T00:38:02.459Z,1.2
2023-04-03T00:39:36.659Z,0.7
2023-04-03T00:40:52.856Z,1
2023-04-03T00:42:33.000Z,1.1
2023-04-03T00:43:07.233Z,0.9
2023-04-03T00:44:41.000Z,1.2
2023-04-03T00:45:57.000Z,1
2023-04-03T00:47:13.825Z,1
2023-04-03T00:48:11.024Z,0.8
2023-04-03T00:49:45.000Z,1.1
2023-04-03T00:50:43.411Z,1
2023-04-03T00:51:59.604Z,1.1
2023-04-03T00:53:15.798Z,0.9
2023-04-03T00:54:49.991Z,1.2
2023-04-03T00:55:48.185Z,1.1
2023-04-03T00:57:22.392Z,0.8
2023-04-03T00:58:38.000Z,1.2
2023-04-03T01:00:19.000Z,1.2
2023-04-03T01:00:52.959Z,0.9
2023-04-03T01:02:27.152Z,1
2023-04-03T01:03:25.345Z,0.8
2023-04-03T01:04:59.539Z,1
2023-04-03T01:05:57.732Z,1
2023-04-03T01:07:13.926Z,1.1
2023-04-03T01:08:29.135Z,0.8
2023-04-03T01:10:03.336Z,1.2
2023-04-03T01:11:19.525Z,1.2
2023-04-03T01:12:35.000Z,1.2
2023-04-03T01:13:33.912Z,1
2023-04-03T01:15:32.000Z,1
2023-04-03T01:16:06.299Z,1.1
2023-04-03T01:17:40.492Z,1.2
2023-04-03T01:18:56.687Z,1.3
2023-04-03T01:20:12.885Z,1.1
2023-04-03T01:21:11.074Z,0.7
2023-04-03T01:23:09.000Z,1.1
2023-04-03T01:24:01.000Z,1
2023-04-03T01:25:17.000Z,1.1
2023-04-03T01:26:15.849Z,1
2023-04-03T01:27:50.000Z,0.9
2023-04-03T01:28:48.236Z,1.2
2023-04-03T01:30:21.449Z,1
2023-04-03T01:31:19.640Z,0.8
2023-04-03T01:32:53.000Z,1.3
2023-04-03T01:34:10.034Z,0.9
2023-04-03T01:35:26.224Z,0.9
2023-04-03T01:36:42.000Z,1.1
2023-04-03T01:37:58.607Z,1
2023-04-03T01:39:14.816Z,0.9
2023-04-03T01:40:31.000Z,1.1
2023-04-03T01:41:29.188Z,1
2023-04-03T01:43:03.393Z,0.9
2023-04-03T01:44:19.579Z,1.4
2023-04-03T01:46:00.000Z,1.4
2023-04-03T01:47:15.000Z,1.2
2023-04-03T01:48:07.000Z,1.1
2023-04-03T01:49:23.000Z,0.9
2023-04-03T01:50:39.557Z,1
2023-04-03T01:51:55.000Z,1.2
2023-04-03T01:53:11.000Z,1.1
2023-04-03T01:54:10.137Z,0.9
2023-04-03T01:55:44.332Z,1
2023-04-03T01:56:42.524Z,1
2023-04-03T01:58:16.722Z,1
2023-04-03T01:59:14.911Z,1
2023-04-03T02:00:49.000Z,1.2
2023-04-03T02:02:05.298Z,1.2
2023-04-03T02:03:21.492Z,1
2023-04-03T02:04:19.686Z,1.1
2023-04-03T02:05:34.896Z,1
2023-04-03T02:07:09.090Z,1.2
2023-04-03T02:08:25.000Z,0.9
2023-04-03T02:09:41.483Z,1
2023-04-03T02:10:57.000Z,0.9
2023-04-03T02:12:13.864Z,1.2
2023-04-03T02:13:12.056Z,1.1
2023-04-03T02:14:46.000Z,1
2023-04-03T02:16:26.000Z,1.1
2023-04-03T02:17:18.000Z,1.2
2023-04-03T02:18:34.830Z,1
2023-04-03T02:19:33.024Z,1.1
2023-04-03T02:21:07.237Z,1.1
2023-04-03T02:22:23.548Z,1.5
2023-04-03T02:23:39.000Z,1
2023-04-03T02:24:37.920Z,1
2023-04-03T02:26:12.114Z,1
2023-04-03T02:27:28.000Z,0.9
2023-04-03T02:28:44.501Z,0.9
2023-04-03T02:29:42.694Z,1.2
2023-04-03T02:31:16.000Z,1
2023-04-03T02:32:15.081Z,1.1
2023-04-03T02:33:49.000Z,1.2
2023-04-03T02:35:05.480Z,1.1
2023-04-03T02:36:03.663Z,1.3
2023-04-03T02:37:37.859Z,1
2023-04-03T02:38:35.066Z,1.3
2023-04-03T02:40:09.000Z,0.9
2023-04-03T02:41:25.452Z,0.8
2023-04-03T02:42:23.646Z,1
2023-04-03T02:43:39.839Z,1.2
2023-04-03T02:44:56.033Z,1.1
2023-04-03T02:46:30.229Z,1
2023-04-03T02:47:28.420Z,1.3
2023-04-03T02:49:02.000Z,0.9
2023-04-03T02:50:00.807Z,1.2
2023-04-03T02:51:17.000Z,0.8
2023-04-03T02:52:51.000Z,1
2023-04-03T02:54:07.000Z,0.9
2023-04-03T02:55:05.580Z,1
2023-04-03T02:56:39.774Z,1.5
2023-04-03T02:57:37.967Z,0.9
2023-04-03T02:59:11.000Z,0.8
2023-04-03T03:00:09.370Z,1.2
2023-04-03T03:01:43.564Z,1.7
2023-04-03T03:02:41.757Z,1.2
2023-04-03T03:04:15.000Z,1
2023-04-03T03:05:32.000Z,0.9
2023-04-03T03:06:48.357Z,0.9
2023-04-03T03:07:46.531Z,1.2
2023-04-03T03:09:20.000Z,1.2
2023-04-03T03:10:18.919Z,1.4
2023-04-03T03:11:53.125Z,0.8
2023-04-03T03:13:09.326Z,1.3
2023-04-03T03:14:25.499Z,1.1
2023-04-03T03:15:40.730Z,1.1
2023-04-03T03:16:38.903Z,0.9
2023-04-03T03:18:13.000Z,1.2
2023-04-03T03:19:29.000Z,0.9
2023-04-03T03:20:45.492Z,1.2
2023-04-03T03:21:43.677Z,1.1
2023-04-03T03:22:59.871Z,1.1
2023-04-03T03:24:16.064Z,1.2
2023-04-03T03:25:32.258Z,1.2
2023-04-03T03:27:06.000Z,1.3
2023-04-03T03:28:04.645Z,1.2
2023-04-03T03:29:20.838Z,1.2
2023-04-03T03:30:55.000Z,1.1
2023-04-03T03:32:11.234Z,1.2
2023-04-03T03:33:08.434Z,1.1
2023-04-03T03:34:42.629Z,1.1
2023-04-03T03:35:40.823Z,1.1
2023-04-03T03:37:15.032Z,1.1
2023-04-03T03:38:31.224Z,0.8
2023-04-03T03:39:29.403Z,1.1
2023-04-03T03:41:03.000Z,1
2023-04-03T03:42:19.000Z,1.1
2023-04-03T03:43:35.000Z,1
2023-04-03T03:44:52.177Z,1.4
2023-04-03T03:45:50.371Z,1
2023-04-03T03:47:24.000Z,1
2023-04-03T03:48:40.766Z,1.1
2023-04-03T03:49:55.000Z,1.4
2023-04-03T03:50:54.161Z,1.3
2023-04-03T03:52:10.354Z,1.2
2023-04-03T03:53:26.548Z,1
2023-04-03T03:54:42.742Z,1.1
2023-04-03T03:56:16.000Z,1.2
2023-04-03T03:57:33.128Z,1.2
2023-04-03T03:58:49.334Z,1.1
2023-04-03T04:00:04.551Z,1.1
2023-04-03T04:01:02.731Z,1.3
2023-04-03T04:02:36.000Z,1.3
2023-04-03T04:03:35.118Z,1.3
2023-04-03T04:05:09.000Z,1.3
2023-04-03T04:06:07.506Z,1.2
2023-04-03T04:07:41.705Z,1
2023-04-03T04:08:57.893Z,1.4
2023-04-03T04:10:38.000Z,1.3
2023-04-03T04:11:12.280Z,1.2
2023-04-03T04:12:46.474Z,1.4
2023-04-03T04:13:44.667Z,0.9
2023-04-03T04:15:18.868Z,1.2
2023-04-03T04:16:16.071Z,1
2023-04-03T04:17:32.266Z,1.1
2023-04-03T04:18:48.459Z,1.3
2023-04-03T04:20:22.000Z,1
2023-04-03T04:21:38.000Z,1.1
2023-04-03T04:22:55.049Z,0.8
2023-04-03T04:24:11.242Z,1.6
2023-04-03T04:25:51.000Z,1.2
2023-04-03T04:26:25.620Z,1.5
2023-04-03T04:27:59.814Z,1.1
2023-04-03T04:29:16.011Z,1.2
2023-04-03T04:30:14.201Z,1
2023-04-03T04:31:48.000Z,1.3
2023-04-03T04:32:46.588Z,1
2023-04-03T04:34:20.000Z,1.3
2023-04-03T04:35:36.000Z,1.2
2023-04-03T04:36:53.000Z,1.1
2023-04-03T04:38:09.362Z,1.3
2023-04-03T04:39:25.560Z,1
2023-04-03T04:40:40.000Z,1.1
2023-04-03T04:41:38.958Z,1.1
2023-04-03T04:43:13.000Z,1.1
2023-04-03T04:44:29.350Z,1.1
2023-04-03T04:45:27.539Z,1.3
2023-04-03T04:47:01.000Z,1
2023-04-03T04:47:59.927Z,1
2023-04-03T04:49:16.120Z,1.3
2023-04-03T04:50:50.000Z,1.2
2023-04-03T04:52:06.525Z,0.9
2023-04-03T04:53:22.720Z,1
2023-04-03T04:54:20.894Z,0.9
2023-04-03T04:55:55.105Z,0.9
2023-04-03T04:57:11.000Z,1.1
2023-04-03T04:58:26.000Z,1.2
2023-04-03T04:59:42.000Z,1.5
2023-04-03T05:00:58.896Z,1.2
2023-04-03T05:01:57.072Z,1
2023-04-03T05:03:13.265Z,1.1
2023-04-03T05:04:47.466Z,1
2023-04-03T05:06:03.000Z,1.2
2023-04-03T05:07:01.846Z,0.7
2023-04-03T05:08:18.039Z,0.9
2023-04-03T05:10:16.000Z,1
2023-04-03T05:11:08.434Z,1.2
2023-04-03T05:12:24.620Z,0.9
2023-04-03T05:13:40.813Z,1.1
2023-04-03T05:14:39.007Z,1.2
2023-04-03T05:16:13.219Z,1.4
2023-04-03T05:17:11.394Z,1.2
2023-04-03T05:18:26.604Z,0.9
2023-04-03T05:20:00.000Z,1
2023-04-03T05:21:16.000Z,1.1
2023-04-03T05:22:33.000Z,1.1
2023-04-03T05:23:49.400Z,1.2
2023-04-03T05:25:05.000Z,1.3
2023-04-03T05:26:03.765Z,1
2023-04-03T05:27:37.966Z,1.4
2023-04-03T05:28:54.000Z,1.1
2023-04-03T05:29:52.346Z,1.2
2023-04-03T05:31:26.000Z,1.2
2023-04-03T05:32:24.734Z,1
2023-04-03T05:33:58.000Z,1.2
2023-04-03T05:34:57.121Z,0.8
2023-04-03T05:36:30.000Z,1.3
2023-04-03T05:37:46.000Z,1.2
2023-04-03T05:39:02.000Z,1.4
2023-04-03T05:40:18.922Z,1.2
2023-04-03T05:41:17.104Z,1.1
2023-04-03T05:42:51.302Z,1.2
2023-04-03T05:44:07.000Z,1.2
2023-04-03T05:45:05.685Z,1.1
2023-04-03T05:46:39.000Z,1
2023-04-03T05:47:38.072Z,1.1
2023-04-03T05:49:12.000Z,1.1
2023-04-03T05:50:28.000Z,1.3
2023-04-03T05:51:44.000Z,1.1
2023-04-03T05:52:42.846Z,1.1
2023-04-03T05:54:16.056Z,1.2
2023-04-03T05:55:32.254Z,1
2023-04-03T05:56:48.000Z,1
2023-04-03T05:57:46.636Z,0.9
2023-04-03T05:59:20.829Z,1.4
2023-04-03T06:00:37.030Z,1.3
2023-04-03T06:01:53.232Z,1
2023-04-03T06:03:09.000Z,1.1
2023-04-03T06:04:07.604Z,1
2023-04-03T06:05:23.798Z,1.2
2023-04-03T06:06:58.000Z,1.1
2023-04-03T06:07:56.185Z,1.2
2023-04-03T06:09:30.000Z,1.2
2023-04-03T06:10:46.000Z,1.2
2023-04-03T06:12:02.766Z,1.2
2023-04-03T06:13:00.960Z,1.4
2023-04-03T06:14:34.171Z,1.3
2023-04-03T06:15:50.000Z,1.4
2023-04-03T06:17:06.561Z,1.3
2023-04-03T06:18:22.757Z,1.1
2023-04-03T06:19:20.946Z,1.3
2023-04-03T06:20:37.139Z,1
2023-04-03T06:22:11.000Z,1.1
2023-04-03T06:23:09.527Z,1
2023-04-03T06:24:25.720Z,0.8
2023-04-03T06:25:59.921Z,1
2023-04-03T06:27:16.000Z,1.1
2023-04-03T06:28:32.000Z,1
2023-04-03T06:29:48.514Z,1
2023-04-03T06:30:45.705Z,1.4
2023-04-03T06:32:19.917Z,0.9
2023-04-03T06:33:18.094Z,1.2
2023-04-03T06:34:52.293Z,1
2023-04-03T06:36:08.492Z,0.9
2023-04-03T06:37:24.000Z,1
2023-04-03T06:38:22.870Z,1.2
2023-04-03T06:39:57.000Z,1
2023-04-03T06:41:13.000Z,1.3
2023-04-03T06:42:29.464Z,0.9
2023-04-03T06:43:27.645Z,1
2023-04-03T06:45:01.838Z,1
2023-04-03T06:46:42.000Z,0.9
2023-04-03T06:47:16.227Z,0.9
2023-04-03T06:48:31.437Z,1
2023-04-03T06:50:05.636Z,1.1
2023-04-03T06:51:03.824Z,0.8
2023-04-03T06:52:38.000Z,1.2
2023-04-03T06:53:54.000Z,1
2023-04-03T06:55:10.422Z,1
2023-04-03T06:56:08.603Z,1
2023-04-03T06:57:42.000Z,0.8
2023-04-03T06:58:40.995Z,0.8
2023-04-03T07:00:15.000Z,0.6
2023-04-03T07:01:13.385Z,0.8
2023-04-03T07:02:47.603Z,0.9
2023-04-03T07:04:03.782Z,1.1
2023-04-03T07:05:19.004Z,0.9
2023-04-03T07:06:35.000Z,0.9
2023-04-03T07:07:51.000Z,0.6
2023-04-03T07:09:07.000Z,0.6
2023-04-03T07:10:23.000Z,1.3
2023-04-03T07:11:21.963Z,1
2023-04-03T07:13:20.000Z,1
2023-04-03T07:13:54.354Z,0.9
2023-04-03T07:15:28.000Z,1
2023-04-03T07:16:26.745Z,1
2023-04-03T07:18:00.000Z,0.7
2023-04-03T07:19:17.000Z,0.7
2023-04-03T07:20:33.335Z,1
2023-04-03T07:21:31.527Z,0.7
2023-04-03T07:23:04.000Z,0.7
2023-04-03T07:24:20.939Z,0.8
2023-04-03T07:25:37.000Z,0.7
2023-04-03T07:26:35.323Z,0.8
2023-04-03T07:28:33.000Z,0.6
2023-04-03T07:29:07.713Z,0.7
2023-04-03T07:30:41.000Z,0.9
2023-04-03T07:31:58.000Z,1
2023-04-03T07:33:14.317Z,0.7
2023-04-03T07:34:12.493Z,0.8
2023-04-03T07:35:46.704Z,0.7
2023-04-03T07:37:02.897Z,0.6
2023-04-03T07:38:19.000Z,0.5
2023-04-03T07:39:35.278Z,1.1
2023-04-03T07:40:50.505Z,0.9
2023-04-03T07:42:06.686Z,0.9
2023-04-03T07:43:22.000Z,0.7
2023-04-03T07:44:39.000Z,0.7
2023-04-03T07:45:55.000Z,0.7
2023-04-03T07:47:11.466Z,0.7
2023-04-03T07:48:27.654Z,0.7
2023-04-03T07:49:43.875Z,1
2023-04-03T07:51:24.000Z,0.7
2023-04-03T07:52:16.260Z,0.8
2023-04-03T07:53:32.000Z,0.9
2023-04-03T07:54:48.642Z,0.8
2023-04-03T07:56:04.000Z,0.7
2023-04-03T07:57:21.000Z,0.9
2023-04-03T07:58:19.215Z,1
2023-04-03T07:59:35.410Z,0.7
2023-04-03T08:01:09.624Z,0.9
2023-04-03T08:02:06.816Z,0.9
2023-04-03T08:03:41.033Z,0.6
2023-04-03T08:04:39.206Z,0.7
2023-04-03T08:06:13.401Z,0.7
2023-04-03T08:07:29.596Z,0.9
2023-04-03T08:08:45.791Z,0.7
2023-04-03T08:10:01.000Z,1
2023-04-03T08:11:18.202Z,1
2023-04-03T08:12:34.000Z,0.6
2023-04-03T08:13:50.000Z,0.8
2023-04-03T08:15:06.000Z,0.8
2023-04-03T08:16:22.000Z,0.7
2023-04-03T08:17:39.171Z,0.8
2023-04-03T08:18:54.395Z,0.9
2023-04-03T08:20:10.000Z,0.6
2023-04-03T08:21:26.784Z,1
2023-04-03T08:22:42.000Z,0.7
2023-04-03T08:23:59.153Z,0.9
2023-04-03T08:24:57.348Z,0.7
2023-04-03T08:26:13.543Z,0.6
2023-04-03T08:27:47.000Z,0.8
2023-04-03T08:29:03.000Z,1
2023-04-03T08:30:02.128Z,1
2023-04-03T08:31:36.000Z,0.6
2023-04-03T08:32:52.000Z,0.6
2023-04-03T08:34:08.000Z,0.6
2023-04-03T08:35:24.908Z,0.6
2023-04-03T08:36:41.117Z,0.8
2023-04-03T08:37:39.420Z,0.7
2023-04-03T08:39:13.000Z,0.9
2023-04-03T08:40:11.810Z,0.9
2023-04-03T08:41:46.000Z,0.8
2023-04-03T08:42:44.200Z,0.8
2023-04-03T08:44:18.410Z,1
2023-04-03T08:45:34.600Z,0.8
2023-04-03T08:46:50.000Z,0.6
2023-04-03T08:48:06.000Z,0.8
2023-04-03T08:49:23.000Z,0.9
2023-04-03T08:50:21.370Z,0.7
2023-04-03T08:51:55.000Z,0.7
2023-04-03T08:52:53.760Z,0.8
2023-04-03T08:54:26.000Z,0.6
2023-04-03T08:55:25.166Z,0.8
2023-04-03T08:56:59.383Z,0.9
2023-04-03T08:57:57.556Z,0.7
2023-04-03T08:59:31.756Z,0.6
2023-04-03T09:00:47.000Z,0.9
2023-04-03T09:02:04.000Z,0.7
2023-04-03T09:03:20.000Z,0.8
2023-04-03T09:04:36.000Z,1.2
2023-04-03T09:05:34.727Z,0.8
2023-04-03T09:07:08.000Z,0.8
2023-04-03T09:08:07.117Z,0.5
2023-04-03T09:09:41.000Z,0.8
2023-04-03T09:10:39.508Z,0.7
2023-04-03T09:12:13.726Z,1
2023-04-03T09:13:28.914Z,0.8
2023-04-03T09:14:45.000Z,0.5
2023-04-03T09:16:01.000Z,0.7
2023-04-03T09:17:17.500Z,0.7
2023-04-03T09:18:33.718Z,0.6
2023-04-03T09:19:49.898Z,0.9
2023-04-03T09:21:06.097Z,0.8
2023-04-03T09:22:22.288Z,0.8
2023-04-03T09:23:20.476Z,0.5
2023-04-03T09:24:54.671Z,0.7
2023-04-03T09:26:10.000Z,0.7
2023-04-03T09:27:27.000Z,0.7
2023-04-03T09:28:43.274Z,0.7
2023-04-03T09:29:58.478Z,0.6
2023-04-03T09:30:56.663Z,0.8
2023-04-03T09:32:30.000Z,0.7
2023-04-03T09:33:47.000Z,0.7
2023-04-03T09:35:03.262Z,0.7
2023-04-03T09:36:19.000Z,0.6
2023-04-03T09:37:35.000Z,1
2023-04-03T09:38:51.833Z,0.8
2023-04-03T09:40:08.000Z,0.8
2023-04-03T09:41:06.223Z,0.7
2023-04-03T09:42:40.428Z,0.5
2023-04-03T09:43:38.613Z,1
2023-04-03T09:45:12.828Z,0.7
2023-04-03T09:46:29.000Z,0.6
2023-04-03T09:47:45.198Z,0.7
2023-04-03T09:49:01.402Z,0.8
2023-04-03T09:50:17.000Z,0.9
2023-04-03T09:51:33.783Z,0.7
2023-04-03T09:53:14.000Z,0.7
2023-04-03T09:53:48.173Z,0.9
2023-04-03T09:55:22.000Z,1
2023-04-03T09:56:38.582Z,1
2023-04-03T09:57:54.000Z,0.8
2023-04-03T09:59:10.000Z,0.9
2023-04-03T10:00:27.000Z,0.7
2023-04-03T10:01:24.356Z,0.7
2023-04-03T10:02:58.552Z,0.9
2023-04-03T10:04:14.000Z,0.5
2023-04-03T10:05:30.000Z,0.7
2023-04-03T10:06:47.155Z,0.8
2023-04-03T10:08:03.000Z,0.6
2023-04-03T10:09:19.527Z,0.6
2023-04-03T10:10:35.000Z,0.6
2023-04-03T10:11:51.000Z,0.7
2023-04-03T10:13:08.113Z,0.7
2023-04-03T10:14:06.308Z,0.7
2023-04-03T10:15:22.503Z,0.6
2023-04-03T10:16:56.698Z,0.6
2023-04-03T10:18:12.000Z,0.6
2023-04-03T10:19:29.110Z,0.7
2023-04-03T10:20:44.318Z,0.8
2023-04-03T10:21:42.495Z,0.7
2023-04-03T10:23:16.000Z,0.8
2023-04-03T10:24:32.000Z,0.6
2023-04-03T10:25:49.000Z,0.6
2023-04-03T10:27:29.000Z,0.6
2023-04-03T10:28:21.491Z,0.6
2023-04-03T10:29:37.000Z,0.7
2023-04-03T10:30:53.875Z,0.7
2023-04-03T10:31:52.057Z,0.7
2023-04-03T10:33:26.270Z,0.6
2023-04-03T10:34:42.452Z,0.5
2023-04-03T10:35:58.643Z,0.6
2023-04-03T10:37:13.867Z,0.7
2023-04-03T10:38:30.000Z,0.5
2023-04-03T10:39:46.262Z,0.4
2023-04-03T10:41:02.000Z,0.8
2023-04-03T10:42:18.635Z,0.7
2023-04-03T10:43:34.844Z,0.5
2023-04-03T10:44:33.025Z,0.7
2023-04-03T10:46:07.232Z,0.6
2023-04-03T10:47:05.416Z,0.6
2023-04-03T10:48:39.000Z,0.6
2023-04-03T10:49:55.829Z,0.7
2023-04-03T10:51:12.002Z,0.6
2023-04-03T10:52:10.197Z,0.6
2023-04-03T10:54:08.000Z,0.6
2023-04-03T10:55:00.000Z,0.6
2023-04-03T10:56:16.000Z,0.6
2023-04-03T10:57:33.106Z,0.7
2023-04-03T10:59:13.000Z,0.6
2023-04-03T10:59:47.490Z,0.6
2023-04-03T11:01:21.000Z,0.6
2023-04-03T11:02:19.881Z,0.6
2023-04-03T11:03:54.077Z,0.6
2023-04-03T11:04:52.272Z,0.6
2023-04-03T11:06:26.475Z,0.8
2023-04-03T11:07:42.000Z,0.5
2023-04-03T11:08:58.000Z,0.7
2023-04-03T11:09:57.053Z,0.7
2023-04-03T11:11:30.000Z,0.8
2023-04-03T11:12:28.460Z,0.6
2023-04-03T11:14:02.668Z,0.6
2023-04-03T11:15:00.850Z,0.6
2023-04-03T11:16:17.047Z,0.5
2023-04-03T11:17:33.242Z,0.6
2023-04-03T11:19:07.000Z,0.6
2023-04-03T11:20:23.000Z,0.8
2023-04-03T11:21:39.000Z,0.8
2023-04-03T11:22:38.025Z,0.7
2023-04-03T11:24:12.232Z,0.7
2023-04-03T11:25:28.000Z,0.5
2023-04-03T11:27:09.000Z,0.6
2023-04-03T11:28:00.000Z,0.6
2023-04-03T11:29:17.019Z,0.6
2023-04-03T11:30:15.199Z,0.7
2023-04-03T11:31:48.432Z,0.5
2023-04-03T11:33:04.000Z,0.6
2023-04-03T11:34:20.000Z,0.7
2023-04-03T11:35:18.997Z,0.5
2023-04-03T11:37:17.000Z,0.6
2023-04-03T11:37:51.388Z,0.6
2023-04-03T11:39:25.000Z,0.8
2023-04-03T11:40:41.787Z,0.7
2023-04-03T11:41:57.000Z,0.6
2023-04-03T11:43:14.185Z,0.6
2023-04-03T11:44:12.366Z,0.7
2023-04-03T11:45:46.000Z,0.5
2023-04-03T11:46:44.757Z,0.5
2023-04-03T11:48:01.073Z,0.6
2023-04-03T11:49:35.269Z,0.7
2023-04-03T11:50:51.471Z,0.7
2023-04-03T11:52:07.676Z,0.6
2023-04-03T11:53:05.854Z,0.6
2023-04-03T11:54:40.073Z,0.7
2023-04-03T11:55:38.246Z,0.7
2023-04-03T11:57:12.000Z,0.5
2023-04-03T11:58:28.000Z,0.9
2023-04-03T11:59:44.842Z,0.8
2023-04-03T12:00:43.026Z,0.7
2023-04-03T12:02:17.233Z,0.6
2023-04-03T12:03:33.000Z,0.6
2023-04-03T12:04:49.614Z,0.7
2023-04-03T12:06:05.825Z,0.6
2023-04-03T12:07:21.030Z,0.7
2023-04-03T12:08:19.216Z,0.7
2023-04-03T12:09:53.413Z,0.8
2023-04-03T12:11:09.000Z,0.7
2023-04-03T12:12:25.000Z,0.6
2023-04-03T12:13:23.998Z,1
2023-04-03T12:14:58.205Z,0.6
2023-04-03T12:16:14.396Z,0.7
2023-04-03T12:17:12.584Z,0.6
2023-04-03T12:18:28.779Z,0.6
2023-04-03T12:20:02.982Z,0.7
2023-04-03T12:21:19.192Z,0.6
2023-04-03T12:22:59.000Z,0.6
2023-04-03T12:23:51.559Z,0.8
2023-04-03T12:25:07.767Z,0.7
2023-04-03T12:26:04.967Z,0.6
2023-04-03T12:27:39.000Z,0.6
2023-04-03T12:28:55.379Z,0.7
2023-04-03T12:30:11.000Z,0.7
2023-04-03T12:31:27.000Z,0.8
2023-04-03T12:32:43.000Z,0.8
2023-04-03T12:33:42.138Z,0.5
2023-04-03T12:35:16.000Z,0.6
2023-04-03T12:36:32.000Z,0.7
2023-04-03T12:37:48.738Z,0.8
2023-04-03T12:39:03.949Z,0.8
2023-04-03T12:40:20.136Z,0.5
2023-04-03T12:41:18.331Z,0.8
2023-04-03T12:42:52.553Z,0.7
2023-04-03T12:43:50.721Z,0.8
2023-04-03T12:45:24.928Z,0.5
2023-04-03T12:46:23.111Z,0.7
2023-04-03T12:47:57.321Z,0.7
2023-04-03T12:49:13.000Z,0.7
2023-04-03T12:50:29.698Z,0.7
2023-04-03T12:51:27.892Z,0.7
2023-04-03T12:53:02.108Z,0.6
2023-04-03T12:54:00.283Z,0.7
2023-04-03T12:55:33.000Z,0.5
2023-04-03T12:56:31.690Z,0.5
2023-04-03T12:58:05.000Z,0.7
2023-04-03T12:59:22.098Z,0.6
2023-04-03T13:01:02.000Z,0.6
2023-04-03T13:01:54.000Z,0.6
2023-04-03T13:03:10.686Z,0.7
2023-04-03T13:04:08.862Z,0.8
2023-04-03T13:05:43.000Z,0.5
2023-04-03T13:06:59.265Z,0.6
2023-04-03T13:08:15.000Z,0.7
2023-04-03T13:09:31.000Z,0.5
2023-04-03T13:10:47.000Z,0.6
2023-04-03T13:12:04.060Z,0.8
2023-04-03T13:13:19.000Z,0.7
2023-04-03T13:14:35.441Z,1
2023-04-03T13:15:51.636Z,0.6
2023-04-03T13:17:07.838Z,0.8
2023-04-03T13:18:24.000Z,0.8
2023-04-03T13:19:22.222Z,0.7
2023-04-03T13:20:56.419Z,0.6
2023-04-03T13:21:54.614Z,0.6
2023-04-03T13:23:28.823Z,0.7
2023-04-03T13:24:27.005Z,0.7
2023-04-03T13:25:43.200Z,0.7
2023-04-03T13:27:17.395Z,0.8
2023-04-03T13:28:33.000Z,0.6
2023-04-03T13:29:31.785Z,0.6
2023-04-03T13:31:05.000Z,0.8
2023-04-03T13:32:22.186Z,0.8
2023-04-03T13:33:37.407Z,0.6
2023-04-03T13:34:53.000Z,0.8
2023-04-03T13:36:09.000Z,0.7
2023-04-03T13:37:07.975Z,0.7
2023-04-03T13:38:42.000Z,0.7
2023-04-03T13:39:58.000Z,0.6
2023-04-03T13:41:39.000Z,0.7
2023-04-03T13:42:12.756Z,0.8
2023-04-03T13:43:46.000Z,0.6
2023-04-03T13:45:03.156Z,1.1
2023-04-03T13:46:19.359Z,0.7
2023-04-03T13:47:35.000Z,0.6
2023-04-03T13:48:51.759Z,0.7
2023-04-03T13:50:32.000Z,0.6
2023-04-03T13:51:24.123Z,0.7
2023-04-03T13:52:40.000Z,0.8
2023-04-03T13:53:56.515Z,0.9
2023-04-03T13:55:12.710Z,0.9
2023-04-03T13:56:28.929Z,0.7
2023-04-03T13:57:45.108Z,0.7
2023-04-03T13:59:01.000Z,0.6
2023-04-03T14:00:17.511Z,0.6
2023-04-03T14:01:33.000Z,0.7
2023-04-03T14:02:49.000Z,0.7
2023-04-03T14:04:06.000Z,0.6
2023-04-03T14:05:22.000Z,0.8
2023-04-03T14:06:38.000Z,0.7
2023-04-03T14:07:54.672Z,0.7
2023-04-03T14:09:09.874Z,0.7
2023-04-03T14:10:08.069Z,0.7
2023-04-03T14:11:24.264Z,0.6
2023-04-03T14:12:40.460Z,0.6
2023-04-03T14:14:14.000Z,0.7
2023-04-03T14:15:12.853Z,0.5
2023-04-03T14:16:47.000Z,0.8
2023-04-03T14:18:03.000Z,0.8
2023-04-03T14:19:19.000Z,0.7
2023-04-03T14:20:17.635Z,0.7
2023-04-03T14:21:51.830Z,0.7
2023-04-03T14:23:08.046Z,1
2023-04-03T14:24:24.236Z,0.6
2023-04-03T14:25:39.457Z,0.5
2023-04-03T14:26:55.642Z,0.8
2023-04-03T14:28:11.838Z,0.6
2023-04-03T14:29:28.000Z,0.8
2023-04-03T14:30:44.216Z,0.7
2023-04-03T14:32:00.438Z,0.8
2023-04-03T14:32:58.607Z,0.7
2023-04-03T14:34:32.000Z,0.6
2023-04-03T14:35:30.998Z,1.2
2023-04-03T14:37:05.000Z,0.6
2023-04-03T14:38:03.388Z,0.6
2023-04-03T14:39:19.584Z,0.7
2023-04-03T14:40:35.779Z,0.7
2023-04-03T14:42:09.975Z,0.6
2023-04-03T14:43:26.000Z,0.8
2023-04-03T14:44:42.000Z,0.5
2023-04-03T14:45:58.571Z,0.8
2023-04-03T14:47:13.797Z,0.8
2023-04-03T14:48:29.979Z,0.6
2023-04-03T14:49:46.177Z,0.8
2023-04-03T14:51:02.000Z,0.7
2023-04-03T14:52:18.000Z,0.7
2023-04-03T14:53:16.752Z,0.6
2023-04-03T14:54:32.948Z,0.7
2023-04-03T14:57:23.351Z,0.8
2023-04-03T14:58:21.535Z,0.7
2023-04-03T14:59:55.730Z,0.7
2023-04-03T15:00:53.925Z,0.6
2023-04-03T15:02:28.000Z,0.9
2023-04-03T15:03:26.315Z,0.6
2023-04-03T15:04:59.000Z,0.7
2023-04-03T15:05:57.722Z,0.9
2023-04-03T15:07:31.000Z,0.6
2023-04-03T15:08:48.000Z,0.7
2023-04-03T15:10:28.000Z,0.6
2023-04-03T15:11:02.505Z,0.7
2023-04-03T15:12:36.000Z,1
2023-04-03T15:13:34.895Z,0.9
2023-04-03T15:15:09.000Z,0.7
2023-04-03T15:16:07.286Z,0.9
2023-04-03T15:17:23.481Z,0.5
2023-04-03T15:18:39.677Z,0.6
2023-04-03T15:20:13.882Z,1
2023-04-03T15:21:30.000Z,0.9
2023-04-03T15:22:46.263Z,0.8
2023-04-03T15:23:44.459Z,0.8
2023-04-03T15:25:18.677Z,0.7
2023-04-03T15:26:16.850Z,1
2023-04-03T15:27:33.045Z,0.9
2023-04-03T15:29:06.273Z,0.7
2023-04-03T15:30:22.452Z,0.6
2023-04-03T15:31:20.648Z,0.9
2023-04-03T15:32:54.000Z,0.6
2023-04-03T15:34:11.000Z,0.8
2023-04-03T15:35:27.260Z,0.9
2023-04-03T15:36:25.429Z,0.5
2023-04-03T15:37:59.624Z,0.5
2023-04-03T15:38:57.819Z,0.6
2023-04-03T15:40:32.015Z,0.8
2023-04-03T15:41:30.210Z,0.5
2023-04-03T15:42:46.405Z,0.7
2023-04-03T15:44:20.600Z,0.7
2023-04-03T15:45:36.000Z,0.8
2023-04-03T15:46:53.000Z,0.7
2023-04-03T15:47:51.186Z,0.7
2023-04-03T15:49:07.380Z,0.9
2023-04-03T15:50:23.577Z,0.7
2023-04-03T15:51:39.771Z,0.6
2023-04-03T15:53:12.000Z,0.8
2023-04-03T15:54:29.190Z,0.7
2023-04-03T15:55:27.374Z,0.7
2023-04-03T15:56:43.568Z,1
2023-04-03T15:58:17.787Z,0.7
2023-04-03T15:59:33.000Z,0.9
2023-04-03T16:00:50.000Z,0.6
2023-04-03T16:02:06.363Z,0.6
2023-04-03T16:03:47.000Z,0.7
2023-04-03T16:04:20.738Z,0.7
2023-04-03T16:05:36.933Z,0.7
2023-04-03T16:07:11.151Z,0.8
2023-04-03T16:08:27.000Z,0.6
2023-04-03T16:09:25.518Z,0.7
2023-04-03T16:10:41.713Z,0.7
2023-04-03T16:12:15.909Z,0.7
2023-04-03T16:13:32.114Z,0.9
2023-04-03T16:14:30.300Z,0.8
2023-04-03T16:16:04.000Z,0.8
2023-04-03T16:17:02.690Z,0.7
2023-04-03T16:18:35.929Z,0.7
2023-04-03T16:19:34.097Z,0.7
2023-04-03T16:21:08.305Z,0.7
2023-04-03T16:22:24.499Z,0.7
2023-04-03T16:23:40.684Z,0.7
2023-04-03T16:24:56.000Z,0.7
2023-04-03T16:26:13.086Z,0.8
2023-04-03T16:27:11.266Z,0.7
2023-04-03T16:28:45.479Z,0.6
2023-04-03T16:29:43.652Z,0.7
2023-04-03T16:31:17.000Z,0.6
2023-04-03T16:32:16.038Z,0.8
2023-04-03T16:33:50.000Z,0.8
2023-04-03T16:34:48.425Z,0.5
2023-04-03T16:36:22.630Z,0.6
2023-04-03T16:37:38.000Z,0.8
2023-04-03T16:38:55.003Z,0.9
2023-04-03T16:39:53.196Z,0.6
2023-04-03T16:41:27.417Z,0.7
2023-04-03T16:42:24.598Z,0.9
2023-04-03T16:43:58.804Z,0.7
2023-04-03T16:44:56.985Z,0.7
2023-04-03T16:46:31.000Z,0.8
2023-04-03T16:47:47.380Z,0.7
2023-04-03T16:49:03.000Z,1
2023-04-03T16:50:19.000Z,1.1
2023-04-03T16:51:35.977Z,0.6
2023-04-03T16:52:34.144Z,0.6
2023-04-03T16:54:07.000Z,0.7
2023-04-03T16:55:05.552Z,0.7
2023-04-03T16:56:21.746Z,0.6
2023-04-03T16:57:37.939Z,0.6
2023-04-03T16:59:12.132Z,0.8
2023-04-03T17:00:10.325Z,0.8
2023-04-03T17:01:44.518Z,0.7
2023-04-03T17:03:00.000Z,0.7
2023-04-03T17:03:58.904Z,0.7
2023-04-03T17:05:15.098Z,0.6
2023-04-03T17:06:49.305Z,0.8
2023-04-03T17:07:47.485Z,0.9
2023-04-03T17:09:21.000Z,0.7
2023-04-03T17:10:19.871Z,0.6
2023-04-03T17:11:54.075Z,0.6
2023-04-03T17:13:09.272Z,0.6
2023-04-03T17:14:50.000Z,1
2023-04-03T17:15:41.000Z,0.7
2023-04-03T17:16:57.000Z,0.8
2023-04-03T17:18:14.063Z,0.8
2023-04-03T17:19:12.237Z,0.9
2023-04-03T17:20:28.431Z,1.1
2023-04-03T17:22:02.000Z,0.7
2023-04-03T17:23:00.817Z,0.8
2023-04-03T17:24:35.000Z,0.9
2023-04-03T17:25:33.203Z,0.8
2023-04-03T17:26:49.395Z,0.6
2023-04-03T17:28:23.000Z,1
2023-04-03T17:29:21.781Z,0.7
2023-04-03T17:30:55.989Z,0.9
2023-04-03T17:32:11.000Z,0.6
2023-04-03T17:33:09.377Z,1
2023-04-03T17:34:43.593Z,0.8
2023-04-03T17:35:59.777Z,1
2023-04-03T17:37:15.956Z,0.8
2023-04-03T17:38:32.162Z,0.8
2023-04-03T17:39:48.354Z,1